Time;durP1;ratioP1;P1;durP2;ratioP2;P2;SDS_P1;SDS_P2;PMS_P1;PMS_P2;Temp;Humidity;BMP_temperature;BMP_pressure;BME280_temperature;BME280_humidity;BME280_pressure;Samples;Min_cycle;Max_cycle;Signal;HPM_P1;HPM_P2
2021/11/23 00:01:13;;;;;;;;;;;;;;;;;;5062821;28;19928;-65
2021/11/23 00:03:43;;;;;;;;;;;;;;;;;;5073863;28;20341;-66
2021/11/23 00:06:12;;;;;;;;;;;;;;;;;;5067454;28;20325;-66
2021/11/23 00:08:42;;;;;;;;;;;;;;;;;;5061564;28;19928;-65
2021/11/23 00:11:10;;;;;;;;;;;;;;;;;;5063193;28;19924;-65
2021/11/23 00:13:38;;;;;;;;;;;;;;;;;;5082207;28;19924;-65
2021/11/23 00:16:09;;;;;;;;;;;;;;;;;;5062766;28;20753;-65
2021/11/23 00:18:39;;;;;;;;;;;;;;;;;;5071613;28;20339;-66
2021/11/23 00:21:08;;;;;;;;;;;;;;;;;;5061234;28;19936;-65
2021/11/23 00:23:39;;;;;;;;;;;;;;;;;;5066151;28;19939;-66
2021/11/23 00:26:08;;;;;;;;;;;;;;;;;;5064431;28;20330;-64
2021/11/23 00:28:36;;;;;;;;;;;;;;;;;;5068035;28;20406;-66
2021/11/23 00:31:05;;;;;;;;;;;;;;;;;;5061740;28;20237;-65
2021/11/23 00:33:42;;;;;;;;;;;;;;;;;;5067009;28;19928;-65
2021/11/23 00:36:11;;;;;;;;;;;;;;;;;;5065758;28;20437;-65
2021/11/23 00:38:45;;;;;;;;;;;;;;;;;;5071243;28;20533;-66
2021/11/23 00:41:17;;;;;;;;;;;;;;;;;;5068137;28;19966;-65
2021/11/23 00:43:46;;;;;;;;;;;;;;;;;;5067782;28;19932;-65
2021/11/23 00:46:16;;;;;;;;;;;;;;;;;;5065117;28;20352;-66
2021/11/23 00:48:51;;;;;;;;;;;;;;;;;;5069608;28;20338;-65
2021/11/23 00:51:22;;;;;;;;;;;;;;;;;;5068668;28;19924;-65
2021/11/23 00:53:51;;;;;;;;;;;;;;;;;;5067150;28;20536;-65
2021/11/23 00:56:19;;;;;;;;;;;;;;;;;;5072495;28;19931;-66
2021/11/23 00:58:47;;;;;;;;;;;;;;;;;;5067125;28;19932;-65
2021/11/23 01:01:17;;;;;;;;;;;;;;;;;;5064017;28;19932;-66
2021/11/23 01:03:48;;;;;;;;;;;;;;;;;;5068080;28;19935;-66
2021/11/23 01:06:18;;;;;;;;;;;;;;;;;;5077896;28;19931;-65
2021/11/23 01:08:49;;;;;;;;;;;;;;;;;;5064128;28;19932;-65
2021/11/23 01:11:16;;;;;;;;;;;;;;;;;;5067934;28;20045;-67
2021/11/23 01:13:46;;;;;;;;;;;;;;;;;;5064303;28;20509;-65
2021/11/23 01:16:17;;;;;;;;;;;;;;;;;;5065650;28;19925;-66
2021/11/23 01:18:46;;;;;;;;;;;;;;;;;;5064218;28;19978;-66
2021/11/23 01:21:17;;;;;;;;;;;;;;;;;;5058205;28;20419;-65
2021/11/23 01:23:48;;;;;;;;;;;;;;;;;;5063757;28;19926;-65
2021/11/23 01:26:18;;;;;;;;;;;;;;;;;;5067577;28;19928;-65
2021/11/23 01:28:50;;;;;;;;;;;;;;;;;;5050436;28;19958;-66
2021/11/23 01:31:18;;;;;;;;;;;;;;;;;;5055258;28;20331;-66
2021/11/23 01:33:52;;;;;;;;;;;;;;;;;;5060128;28;20289;-65
2021/11/23 01:36:23;;;;;;;;;;;;;;;;;;5066146;28;20397;-65
2021/11/23 01:38:52;;;;;;;;;;;;;;;;;;5066667;28;20384;-66
2021/11/23 01:41:23;;;;;;;;;;;;;;;;;;5063969;28;19925;-65
2021/11/23 01:43:56;;;;;;;;;;;;;;;;;;5065636;28;19932;-65
2021/11/23 01:46:26;;;;;;;;;;;;;;;;;;5074725;28;19924;-66
2021/11/23 01:48:53;;;;;;;;;;;;;;;;;;5051745;28;20388;-66
2021/11/23 01:51:22;;;;;;;;;;;;;;;;;;5072170;28;20538;-66
2021/11/23 01:53:51;;;;;;;;;;;;;;;;;;5063013;28;19924;-66
2021/11/23 01:56:31;;;;;;;;;;;;;;;;;;5061804;28;20035;-66
2021/11/23 01:58:58;;;;;;;;;;;;;;;;;;5062632;28;19935;-64
2021/11/23 02:01:27;;;;;;;;;;;;;;;;;;5065913;28;20004;-65
2021/11/23 02:03:56;;;;;;;;;;;;;;;;;;5066327;28;19924;-65
2021/11/23 02:06:23;;;;;;;;;;;;;;;;;;5065604;28;20460;-65
2021/11/23 02:08:52;;;;;;;;;;;;;;;;;;5065914;28;20275;-67
2021/11/23 02:11:21;;;;;;;;;;;;;;;;;;5063860;28;20398;-65
2021/11/23 02:13:51;;;;;;;;;;;;;;;;;;5065167;28;19925;-66
2021/11/23 02:16:22;;;;;;;;;;;;;;;;;;5065443;28;19931;-65
2021/11/23 02:18:51;;;;;;;;;;;;;;;;;;5070758;28;19989;-66
2021/11/23 02:21:27;;;;;;;;;;;;;;;;;;5062455;28;20602;-65
2021/11/23 02:23:55;;;;;;;;;;;;;;;;;;5065187;28;19924;-65
2021/11/23 02:26:26;;;;;;;;;;;;;;;;;;5063918;28;20525;-66
2021/11/23 02:29:02;;;;;;;;;;;;;;;;;;5062440;28;19925;-65
2021/11/23 02:31:31;;;;;;;;;;;;;;;;;;5065378;28;19935;-66
2021/11/23 02:34:02;;;;;;;;;;;;;;;;;;5076162;28;19931;-65
2021/11/23 02:36:36;;;;;;;;;;;;;;;;;;5067096;28;19924;-65
2021/11/23 02:39:06;;;;;;;;;;;;;;;;;;5063193;28;19937;-65
2021/11/23 02:41:37;;;;;;;;;;;;;;;;;;5066720;28;19929;-65
2021/11/23 02:44:08;;;;;;;;;;;;;;;;;;5068628;28;19932;-67
2021/11/23 02:46:37;;;;;;;;;;;;;;;;;;5069981;28;20361;-66
2021/11/23 02:49:08;;;;;;;;;;;;;;;;;;5066582;28;19927;-65
2021/11/23 02:51:39;;;;;;;;;;;;;;;;;;5066818;28;20496;-65
2021/11/23 02:54:10;;;;;;;;;;;;;;;;;;5065439;28;20328;-65
2021/11/23 02:56:39;;;;;;;;;;;;;;;;;;5066931;28;19925;-66
2021/11/23 02:59:10;;;;;;;;;;;;;;;;;;5071426;28;19925;-65
2021/11/23 03:01:41;;;;;;;;;;;;;;;;;;5069868;28;19931;-64
2021/11/23 03:04:10;;;;;;;;;;;;;;;;;;5068605;28;19969;-65
2021/11/23 03:06:43;;;;;;;;;;;;;;;;;;5071005;28;19925;-64
2021/11/23 03:09:15;;;;;;;;;;;;;;;;;;5060866;28;20443;-66
2021/11/23 03:11:43;;;;;;;;;;;;;;;;;;5076456;28;19932;-65
2021/11/23 03:14:15;;;;;;;;;;;;;;;;;;5064589;28;19932;-65
2021/11/23 03:16:46;;;;;;;;;;;;;;;;;;5076807;28;19973;-66
2021/11/23 03:19:17;;;;;;;;;;;;;;;;;;5064211;28;19925;-65
2021/11/23 03:21:45;;;;;;;;;;;;;;;;;;5069978;28;19928;-65
2021/11/23 03:24:14;;;;;;;;;;;;;;;;;;5052041;28;19934;-67
2021/11/23 03:26:46;;;;;;;;;;;;;;;;;;5082491;28;19935;-65
2021/11/23 03:29:16;;;;;;;;;;;;;;;;;;5064212;28;19947;-65
2021/11/23 03:31:43;;;;;;;;;;;;;;;;;;5061903;28;19951;-65
2021/11/23 03:34:14;;;;;;;;;;;;;;;;;;5070450;28;19936;-67
2021/11/23 03:36:45;;;;;;;;;;;;;;;;;;5065893;28;19952;-66
2021/11/23 03:39:15;;;;;;;;;;;;;;;;;;5064440;28;19929;-65
2021/11/23 03:41:46;;;;;;;;;;;;;;;;;;5067896;28;20342;-64
2021/11/23 03:44:16;;;;;;;;;;;;;;;;;;5071382;28;19928;-67
2021/11/23 03:46:47;;;;;;;;;;;;;;;;;;5068415;28;19924;-65
2021/11/23 03:49:17;;;;;;;;;;;;;;;;;;5064872;28;20313;-65
2021/11/23 03:51:46;;;;;;;;;;;;;;;;;;5068092;28;19931;-65
2021/11/23 03:54:16;;;;;;;;;;;;;;;;;;5067077;28;19985;-66
2021/11/23 03:56:47;;;;;;;;;;;;;;;;;;5061126;28;20046;-66
2021/11/23 03:59:18;;;;;;;;;;;;;;;;;;5066116;28;19928;-65
2021/11/23 04:01:49;;;;;;;;;;;;;;;;;;5070286;28;19925;-65
2021/11/23 04:04:25;;;;;;;;;;;;;;;;;;5079142;28;19924;-65
2021/11/23 04:06:53;;;;;;;;;;;;;;;;;;5066160;28;19924;-65
2021/11/23 04:09:22;;;;;;;;;;;;;;;;;;5071957;28;19951;-67
2021/11/23 04:11:55;;;;;;;;;;;;;;;;;;5068035;28;19944;-64
2021/11/23 04:14:25;;;;;;;;;;;;;;;;;;5066479;28;19929;-66
2021/11/23 04:16:54;;;;;;;;;;;;;;;;;;5066060;28;19947;-65
2021/11/23 04:19:22;;;;;;;;;;;;;;;;;;5066406;28;19925;-65
2021/11/23 04:21:52;;;;;;;;;;;;;;;;;;5076963;28;20652;-64
2021/11/23 04:24:22;;;;;;;;;;;;;;;;;;5066836;28;19924;-65
2021/11/23 04:26:52;;;;;;;;;;;;;;;;;;5067961;28;20004;-64
2021/11/23 04:29:20;;;;;;;;;;;;;;;;;;5077342;28;20274;-65
2021/11/23 04:31:51;;;;;;;;;;;;;;;;;;5061995;28;19935;-66
2021/11/23 04:34:21;;;;;;;;;;;;;;;;;;5067225;28;19925;-65
2021/11/23 04:36:52;;;;;;;;;;;;;;;;;;5066392;28;19935;-65
2021/11/23 04:39:23;;;;;;;;;;;;;;;;;;5075848;28;19924;-65
2021/11/23 04:41:53;;;;;;;;;;;;;;;;;;5063564;28;20331;-65
2021/11/23 04:44:23;;;;;;;;;;;;;;;;;;5070314;28;19982;-67
2021/11/23 04:46:51;;;;;;;;;;;;;;;;;;5067385;28;19935;-66
2021/11/23 04:49:23;;;;;;;;;;;;;;;;;;5075681;28;19975;-67
2021/11/23 04:51:54;;;;;;;;;;;;;;;;;;5064068;28;20352;-65
2021/11/23 04:54:24;;;;;;;;;;;;;;;;;;5063349;28;19929;-65
2021/11/23 04:56:56;;;;;;;;;;;;;;;;;;5063362;28;19925;-65
2021/11/23 04:59:24;;;;;;;;;;;;;;;;;;5069746;28;19928;-65
2021/11/23 05:01:53;;;;;;;;;;;;;;;;;;5063273;28;20368;-67
2021/11/23 05:04:20;;;;;;;;;;;;;;;;;;5072332;28;19960;-65
2021/11/23 05:06:54;;;;;;;;;;;;;;;;;;5063291;28;19989;-65
2021/11/23 05:09:23;;;;;;;;;;;;;;;;;;5056802;28;19934;-66
2021/11/23 05:11:54;;;;;;;;;;;;;;;;;;5065795;28;20382;-65
2021/11/23 05:14:24;;;;;;;;;;;;;;;;;;5067210;28;19932;-64
2021/11/23 05:16:55;;;;;;;;;;;;;;;;;;5061998;28;19943;-65
2021/11/23 05:19:26;;;;;;;;;;;;;;;;;;5052864;28;19924;-65
2021/11/23 05:21:56;;;;;;;;;;;;;;;;;;5070596;28;19925;-67
2021/11/23 05:24:27;;;;;;;;;;;;;;;;;;5064262;28;20099;-65
2021/11/23 05:27:00;;;;;;;;;;;;;;;;;;5067419;28;19939;-66
2021/11/23 05:29:29;;;;;;;;;;;;;;;;;;5064471;28;19925;-65
2021/11/23 05:32:00;;;;;;;;;;;;;;;;;;5072438;28;19932;-65
2021/11/23 05:34:34;;;;;;;;;;;;;;;;;;5061879;28;19925;-66
2021/11/23 05:37:04;;;;;;;;;;;;;;;;;;5060294;28;20342;-65
2021/11/23 05:39:35;;;;;;;;;;;;;;;;;;5064941;28;19928;-65
2021/11/23 05:42:06;;;;;;;;;;;;;;;;;;5070103;28;19954;-66
2021/11/23 05:44:36;;;;;;;;;;;;;;;;;;5066279;28;19924;-66
2021/11/23 05:47:06;;;;;;;;;;;;;;;;;;5065220;28;20307;-65
2021/11/23 05:49:37;;;;;;;;;;;;;;;;;;5064078;28;20407;-65
2021/11/23 05:52:05;;;;;;;;;;;;;;;;;;5065487;28;19993;-66
2021/11/23 05:54:38;;;;;;;;;;;;;;;;;;5062669;28;19924;-67
2021/11/23 05:57:06;;;;;;;;;;;;;;;;;;5063882;28;19925;-67
2021/11/23 05:59:34;;;;;;;;;;;;;;;;;;5064242;28;19928;-66
2021/11/23 06:02:06;;;;;;;;;;;;;;;;;;5066723;28;19925;-66
2021/11/23 06:04:35;;;;;;;;;;;;;;;;;;5064815;28;19934;-66
2021/11/23 06:07:03;;;;;;;;;;;;;;;;;;5063819;28;19989;-67
2021/11/23 06:09:42;;;;;;;;;;;;;;;;;;5066804;28;19932;-68
2021/11/23 06:12:12;;;;;;;;;;;;;;;;;;5071395;28;19929;-66
2021/11/23 06:14:43;;;;;;;;;;;;;;;;;;5075755;28;20376;-66
2021/11/23 06:17:14;;;;;;;;;;;;;;;;;;5056902;28;20641;-67
2021/11/23 06:19:45;;;;;;;;;;;;;;;;;;5074314;28;19924;-67
2021/11/23 06:22:18;;;;;;;;;;;;;;;;;;5075842;28;19924;-66
2021/11/23 06:24:50;;;;;;;;;;;;;;;;;;5070158;28;19936;-66
2021/11/23 06:27:20;;;;;;;;;;;;;;;;;;5070328;28;19935;-64
2021/11/23 06:29:50;;;;;;;;;;;;;;;;;;5070865;28;19931;-64
2021/11/23 06:32:20;;;;;;;;;;;;;;;;;;5070337;28;19924;-65
2021/11/23 06:34:51;;;;;;;;;;;;;;;;;;5083995;28;19928;-65
2021/11/23 06:37:18;;;;;;;;;;;;;;;;;;5039814;28;19985;-64
2021/11/23 06:39:49;;;;;;;;;;;;;;;;;;5077247;28;20277;-64
2021/11/23 06:42:19;;;;;;;;;;;;;;;;;;5067518;28;19925;-65
2021/11/23 06:44:48;;;;;;;;;;;;;;;;;;5079741;28;19924;-65
2021/11/23 06:47:19;;;;;;;;;;;;;;;;;;5067059;28;19940;-65
2021/11/23 06:49:51;;;;;;;;;;;;;;;;;;5077775;28;20841;-65
2021/11/23 06:52:23;;;;;;;;;;;;;;;;;;5069560;28;19929;-66
2021/11/23 06:54:54;;;;;;;;;;;;;;;;;;5069407;28;19932;-65
2021/11/23 06:57:24;;;;;;;;;;;;;;;;;;5072881;28;20015;-64
2021/11/23 06:59:55;;;;;;;;;;;;;;;;;;5073649;28;19988;-64
2021/11/23 07:02:25;;;;;;;;;;;;;;;;;;5078015;28;20015;-65
2021/11/23 07:04:53;;;;;;;;;;;;;;;;;;5077676;28;19932;-66
2021/11/23 07:07:23;;;;;;;;;;;;;;;;;;5067018;28;20001;-64
2021/11/23 07:09:54;;;;;;;;;;;;;;;;;;5067341;28;20265;-65
2021/11/23 07:12:24;;;;;;;;;;;;;;;;;;5082608;28;19983;-64
2021/11/23 07:14:54;;;;;;;;;;;;;;;;;;5069925;28;19929;-64
2021/11/23 07:17:34;;;;;;;;;;;;;;;;;;5085278;28;19935;-65
2021/11/23 07:20:01;;;;;;;;;;;;;;;;;;5066191;28;19933;-65
2021/11/23 07:22:30;;;;;;;;;;;;;;;;;;5028873;28;19925;-65
2021/11/23 07:25:00;;;;;;;;;;;;;;;;;;5019917;28;19990;-63
2021/11/23 07:27:31;;;;;;;;;;;;;;;;;;5026949;28;20558;-64
2021/11/23 07:30:00;;;;;;;;;;;;;;;;;;5019415;28;19939;-63
2021/11/23 07:32:30;;;;;;;;;;;;;;;;;;5015044;28;20057;-64
2021/11/23 07:35:01;;;;;;;;;;;;;;;;;;5020907;28;19940;-64
2021/11/23 07:37:36;;;;;;;;;;;;;;;;;;5008421;28;19936;-68
2021/11/23 07:40:08;;;;;;;;;;;;;;;;;;5019690;28;19948;-70
2021/11/23 07:42:37;;;;;;;;;;;;;;;;;;5018115;28;19925;-66
2021/11/23 07:45:15;;;;;;;;;;;;;;;;;;5017971;28;20641;-66
2021/11/23 07:47:45;;;;;;;;;;;;;;;;;;5049810;28;19962;-67
2021/11/23 07:50:15;;;;;;;;;;;;;;;;;;5065520;28;21498;-70
2021/11/23 07:52:46;;;;;;;;;;;;;;;;;;5073430;28;19924;-72
2021/11/23 07:55:15;;;;;;;;;;;;;;;;;;5062002;28;19928;-69
2021/11/23 07:57:45;;;;;;;;;;;;;;;;;;5072384;28;19928;-68
2021/11/23 08:00:13;;;;;;;;;;;;;;;;;;5067246;28;19954;-67
2021/11/23 08:02:42;;;;;;;;;;;;;;;;;;5064194;28;19928;-66
2021/11/23 08:05:13;;;;;;;;;;;;;;;;;;5061090;28;19960;-68
2021/11/23 08:07:42;;;;;;;;;;;;;;;;;;5069961;28;20276;-67
2021/11/23 08:10:09;;;;;;;;;;;;;;;;;;5067884;28;19973;-66
2021/11/23 08:12:40;;;;;;;;;;;;;;;;;;5060880;28;19936;-67
2021/11/23 08:15:11;;;;;;;;;;;;;;;;;;5063520;28;19924;-67
2021/11/23 08:17:39;;;;;;;;;;;;;;;;;;5075289;28;20396;-68
2021/11/23 08:20:10;;;;;;;;;;;;;;;;;;5063835;28;19932;-68
2021/11/23 08:22:45;;;;;;;;;;;;;;;;;;5066694;28;20387;-68
2021/11/23 08:25:14;;;;;;;;;;;;;;;;;;5060502;28;19930;-69
2021/11/23 08:27:42;;;;;;;;;;;;;;;;;;5069984;28;20292;-70
2021/11/23 08:30:10;;;;;;;;;;;;;;;;;;5069394;28;19928;-70
2021/11/23 08:32:37;;;;;;;;;;;;;;;;;;5062235;28;20385;-68
2021/11/23 08:35:05;;;;;;;;;;;;;;;;;;5063233;28;19939;-70
2021/11/23 08:37:35;;;;;;;;;;;;;;;;;;5065028;28;20019;-71
2021/11/23 08:40:05;;;;;;;;;;;;;;;;;;5066179;28;19943;-70
2021/11/23 08:42:47;;;;;;;;;;;;;;;;;;5069898;28;20445;-69
2021/11/23 08:45:17;;;;;;;;;;;;;;;;;;5060691;28;19981;-69
2021/11/23 08:47:53;;;;;;;;;;;;;;;;;;5052764;28;19928;-68
2021/11/23 08:50:22;;;;;;;;;;;;;;;;;;5063520;28;19924;-69
2021/11/23 08:52:51;;;;;;;;;;;;;;;;;;5069479;28;19970;-70
2021/11/23 08:55:18;;;;;;;;;;;;;;;;;;5064597;28;20406;-69
2021/11/23 08:57:49;;;;;;;;;;;;;;;;;;5077788;28;19928;-69
2021/11/23 09:00:20;;;;;;;;;;;;;;;;;;5066712;28;19925;-69
2021/11/23 09:02:51;;;;;;;;;;;;;;;;;;5063324;28;19924;-68
2021/11/23 09:05:18;;;;;;;;;;;;;;;;;;5065616;28;19985;-70
2021/11/23 09:07:47;;;;;;;;;;;;;;;;;;5061340;28;19924;-68
2021/11/23 09:10:23;;;;;;;;;;;;;;;;;;5069147;28;19989;-69
2021/11/23 09:12:50;;;;;;;;;;;;;;;;;;5063247;28;19958;-67
2021/11/23 09:15:19;;;;;;;;;;;;;;;;;;5069608;28;20723;-69
2021/11/23 09:17:50;;;;;;;;;;;;;;;;;;5067322;28;20378;-68
2021/11/23 09:20:17;;;;;;;;;;;;;;;;;;5061197;28;20024;-65
2021/11/23 09:22:45;;;;;;;;;;;;;;;;;;5067479;28;19933;-65
2021/11/23 09:25:12;;;;;;;;;;;;;;;;;;5060713;28;19935;-68
2021/11/23 09:27:42;;;;;;;;;;;;;;;;;;5064729;28;19929;-67
2021/11/23 09:30:13;;;;;;;;;;;;;;;;;;5064572;28;19924;-66
2021/11/23 09:32:56;;;;;;;;;;;;;;;;;;5064224;28;19932;-66
2021/11/23 09:35:28;;;;;;;;;;;;;;;;;;5058689;28;19924;-66
2021/11/23 09:37:56;;;;;;;;;;;;;;;;;;5065532;28;19929;-65
2021/11/23 09:40:24;;;;;;;;;;;;;;;;;;5065568;28;19925;-65
2021/11/23 09:42:54;;;;;;;;;;;;;;;;;;5067073;28;19981;-67
2021/11/23 09:45:23;;;;;;;;;;;;;;;;;;5059026;28;19935;-68
2021/11/23 09:47:51;;;;;;;;;;;;;;;;;;5066781;28;19942;-69
2021/11/23 09:50:18;;;;;;;;;;;;;;;;;;5074530;28;19930;-71
2021/11/23 09:52:48;;;;;;;;;;;;;;;;;;5067387;28;19928;-71
2021/11/23 09:55:18;;;;;;;;;;;;;;;;;;5074332;28;19935;-69
2021/11/23 09:57:52;;;;;;;;;;;;;;;;;;5070306;28;19974;-68
2021/11/23 10:00:24;;;;;;;;;;;;;;;;;;5065674;28;19928;-69
2021/11/23 10:02:54;;;;;;;;;;;;;;;;;;5071957;28;19928;-69
2021/11/23 10:05:23;;;;;;;;;;;;;;;;;;5064068;28;19933;-69
2021/11/23 10:07:50;;;;;;;;;;;;;;;;;;5066350;28;19990;-68
2021/11/23 10:10:18;;;;;;;;;;;;;;;;;;5077298;28;19985;-69
2021/11/23 10:12:48;;;;;;;;;;;;;;;;;;5072889;28;21275;-72
2021/11/23 10:15:15;;;;;;;;;;;;;;;;;;5074262;28;19957;-67
2021/11/23 10:17:46;;;;;;;;;;;;;;;;;;5071404;28;19940;-66
2021/11/23 10:20:14;;;;;;;;;;;;;;;;;;5064498;28;19924;-67
2021/11/23 10:22:43;;;;;;;;;;;;;;;;;;5053530;28;19925;-67
2021/11/23 10:25:12;;;;;;;;;;;;;;;;;;5071536;28;19924;-69
2021/11/23 10:27:43;;;;;;;;;;;;;;;;;;5072952;28;20417;-70
2021/11/23 10:30:13;;;;;;;;;;;;;;;;;;5072481;28;20358;-69
2021/11/23 10:32:45;;;;;;;;;;;;;;;;;;5064036;28;19932;-69
2021/11/23 10:35:13;;;;;;;;;;;;;;;;;;5065996;28;20319;-69
2021/11/23 10:37:45;;;;;;;;;;;;;;;;;;5066646;28;19944;-68
2021/11/23 10:40:12;;;;;;;;;;;;;;;;;;5071959;28;19924;-68
2021/11/23 10:42:44;;;;;;;;;;;;;;;;;;5068406;28;19925;-68
2021/11/23 10:45:12;;;;;;;;;;;;;;;;;;5066022;28;19958;-66
2021/11/23 10:47:42;;;;;;;;;;;;;;;;;;5076126;28;19975;-71
2021/11/23 10:50:10;;;;;;;;;;;;;;;;;;5068466;28;20386;-70
2021/11/23 10:52:39;;;;;;;;;;;;;;;;;;5072902;28;19932;-68
2021/11/23 10:55:09;;;;;;;;;;;;;;;;;;5067305;28;19931;-68
2021/11/23 10:57:36;;;;;;;;;;;;;;;;;;5078965;28;19950;-70
2021/11/23 11:00:04;;;;;;;;;;;;;;;;;;5067402;28;19935;-70
2021/11/23 11:02:32;;;;;;;;;;;;;;;;;;5065722;28;20262;-69
2021/11/23 11:05:01;;;;;;;;;;;;;;;;;;5065499;28;20471;-65
2021/11/23 11:07:31;;;;;;;;;;;;;;;;;;5073952;28;19932;-67
2021/11/23 11:10:00;;;;;;;;;;;;;;;;;;5066072;28;19988;-66
2021/11/23 11:12:33;;;;;;;;;;;;;;;;;;5078402;28;20504;-64
2021/11/23 11:15:00;;;;;;;;;;;;;;;;;;5065287;28;19924;-66
2021/11/23 11:17:31;;;;;;;;;;;;;;;;;;5067661;28;19943;-66
2021/11/23 11:20:01;;;;;;;;;;;;;;;;;;5063950;28;19928;-67
2021/11/23 11:22:38;;;;;;;;;;;;;;;;;;5066332;28;20529;-67
2021/11/23 11:25:20;;;;;;;;;;;;;;;;;;5063512;28;19934;-66
2021/11/23 11:27:50;;;;;;;;;;;;;;;;;;5064628;28;20419;-67
2021/11/23 11:30:22;;;;;;;;;;;;;;;;;;5065418;28;19940;-67
2021/11/23 11:32:53;;;;;;;;;;;;;;;;;;5073040;28;19924;-67
2021/11/23 11:35:25;;;;;;;;;;;;;;;;;;5065937;28;20590;-68
2021/11/23 11:37:52;;;;;;;;;;;;;;;;;;5066321;28;20527;-69
2021/11/23 11:40:21;;;;;;;;;;;;;;;;;;5060578;28;19974;-67
2021/11/23 11:42:50;;;;;;;;;;;;;;;;;;5073046;28;19993;-67
2021/11/23 11:45:18;;;;;;;;;;;;;;;;;;5061045;28;20326;-64
2021/11/23 11:47:52;;;;;;;;;;;;;;;;;;5082302;28;19924;-65
2021/11/23 11:50:19;;;;;;;;;;;;;;;;;;5068817;28;19935;-67
2021/11/23 11:52:50;;;;;;;;;;;;;;;;;;5082651;28;20361;-67
2021/11/23 11:55:22;;;;;;;;;;;;;;;;;;5063537;28;19970;-68
2021/11/23 11:57:57;;;;;;;;;;;;;;;;;;5075955;28;19955;-68
2021/11/23 12:00:36;;;;;;;;;;;;;;;;;;5066332;28;19993;-65
2021/11/23 12:03:07;;;;;;;;;;;;;;;;;;5068618;28;20370;-70
2021/11/23 12:05:36;;;;;;;;;;;;;;;;;;5061150;28;19928;-68
2021/11/23 12:08:05;;;;;;;;;;;;;;;;;;5073715;28;19928;-69
2021/11/23 12:10:33;;;;;;;;;;;;;;;;;;5065830;28;19924;-70
2021/11/23 12:13:02;;;;;;;;;;;;;;;;;;5073085;28;19931;-69
2021/11/23 12:15:30;;;;;;;;;;;;;;;;;;5065381;28;20382;-69
2021/11/23 12:18:03;;;;;;;;;;;;;;;;;;5066963;28;19939;-70
2021/11/23 12:20:33;;;;;;;;;;;;;;;;;;5057379;28;19993;-69
2021/11/23 12:23:05;;;;;;;;;;;;;;;;;;5067247;28;19924;-70
2021/11/23 12:25:33;;;;;;;;;;;;;;;;;;5063417;28;20270;-69
2021/11/23 12:28:00;;;;;;;;;;;;;;;;;;5068423;28;20033;-71
2021/11/23 12:30:29;;;;;;;;;;;;;;;;;;5068102;28;19933;-68
2021/11/23 12:32:57;;;;;;;;;;;;;;;;;;5073924;28;19954;-70
2021/11/23 12:35:25;;;;;;;;;;;;;;;;;;5068973;28;19928;-68
2021/11/23 12:37:55;;;;;;;;;;;;;;;;;;5079036;28;20141;-71
2021/11/23 12:40:25;;;;;;;;;;;;;;;;;;5074061;28;19928;-73
2021/11/23 12:42:55;;;;;;;;;;;;;;;;;;5069212;28;19934;-73
2021/11/23 12:45:24;;;;;;;;;;;;;;;;;;5062716;28;19928;-70
2021/11/23 12:47:54;;;;;;;;;;;;;;;;;;5082690;28;19924;-74
2021/11/23 12:50:23;;;;;;;;;;;;;;;;;;5068239;28;20406;-72
2021/11/23 12:52:52;;;;;;;;;;;;;;;;;;5073734;28;19924;-70
2021/11/23 12:55:22;;;;;;;;;;;;;;;;;;5063098;28;19932;-68
2021/11/23 12:57:53;;;;;;;;;;;;;;;;;;5073883;28;19924;-71
2021/11/23 13:00:24;;;;;;;;;;;;;;;;;;5064479;28;20238;-73
2021/11/23 13:02:55;;;;;;;;;;;;;;;;;;5066659;28;19928;-74
2021/11/23 13:05:28;;;;;;;;;;;;;;;;;;5070847;28;19924;-71
2021/11/23 13:08:08;;;;;;;;;;;;;;;;;;5061418;28;19932;-69
2021/11/23 13:10:36;;;;;;;;;;;;;;;;;;5073483;28;20316;-71
2021/11/23 13:13:04;;;;;;;;;;;;;;;;;;5066643;28;19925;-70
2021/11/23 13:15:35;;;;;;;;;;;;;;;;;;5056408;28;19956;-73
2021/11/23 13:18:03;;;;;;;;;;;;;;;;;;5066533;28;19932;-70
2021/11/23 13:20:34;;;;;;;;;;;;;;;;;;5059642;28;19950;-73
2021/11/23 13:23:05;;;;;;;;;;;;;;;;;;5066335;28;19977;-71
2021/11/23 13:25:36;;;;;;;;;;;;;;;;;;5072701;28;19940;-69
2021/11/23 13:28:07;;;;;;;;;;;;;;;;;;5066599;28;19955;-70
2021/11/23 13:30:38;;;;;;;;;;;;;;;;;;5066056;28;19939;-70
2021/11/23 13:33:09;;;;;;;;;;;;;;;;;;5060342;28;20293;-70
2021/11/23 13:35:40;;;;;;;;;;;;;;;;;;5066525;28;19924;-71
2021/11/23 13:38:11;;;;;;;;;;;;;;;;;;5075534;28;19924;-69
2021/11/23 13:40:39;;;;;;;;;;;;;;;;;;5062758;28;19973;-75
2021/11/23 13:43:06;;;;;;;;;;;;;;;;;;5043304;28;19944;-72
2021/11/23 13:45:34;;;;;;;;;;;;;;;;;;5079205;28;19924;-72
2021/11/23 13:48:02;;;;;;;;;;;;;;;;;;5067274;28;19929;-73
2021/11/23 13:50:33;;;;;;;;;;;;;;;;;;5070357;28;19925;-69
2021/11/23 13:53:01;;;;;;;;;;;;;;;;;;5046594;28;20387;-71
2021/11/23 13:55:29;;;;;;;;;;;;;;;;;;5063559;28;19929;-69
2021/11/23 13:58:00;;;;;;;;;;;;;;;;;;5065007;28;19977;-68
2021/11/23 14:00:27;;;;;;;;;;;;;;;;;;5067848;28;19989;-73
2021/11/23 14:02:55;;;;;;;;;;;;;;;;;;5067469;28;19989;-75
2021/11/23 14:05:24;;;;;;;;;;;;;;;;;;5063513;28;19924;-74
2021/11/23 14:07:53;;;;;;;;;;;;;;;;;;5060864;28;19940;-73
2021/11/23 14:10:20;;;;;;;;;;;;;;;;;;5071200;28;19928;-72
2021/11/23 14:12:50;;;;;;;;;;;;;;;;;;5068369;28;19925;-71
2021/11/23 14:15:18;;;;;;;;;;;;;;;;;;5076878;28;19935;-69
2021/11/23 14:17:46;;;;;;;;;;;;;;;;;;5069755;28;19932;-70
2021/11/23 14:20:16;;;;;;;;;;;;;;;;;;5062125;28;19928;-71
2021/11/23 14:22:47;;;;;;;;;;;;;;;;;;5064541;28;19928;-69
2021/11/23 14:25:22;;;;;;;;;;;;;;;;;;5068868;28;19924;-70
2021/11/23 14:27:50;;;;;;;;;;;;;;;;;;5068392;28;19932;-74
2021/11/23 14:30:17;;;;;;;;;;;;;;;;;;5062173;28;19934;-72
2021/11/23 14:33:03;;;;;;;;;;;;;;;;;;5066558;28;19938;-71
2021/11/23 14:35:31;;;;;;;;;;;;;;;;;;5075258;28;19928;-71
2021/11/23 14:38:02;;;;;;;;;;;;;;;;;;5071195;28;20224;-73
2021/11/23 14:40:32;;;;;;;;;;;;;;;;;;5068963;28;19934;-73
2021/11/23 14:43:03;;;;;;;;;;;;;;;;;;5062709;28;20652;-73
2021/11/23 14:45:31;;;;;;;;;;;;;;;;;;5067316;28;19969;-66
2021/11/23 14:48:02;;;;;;;;;;;;;;;;;;5072902;28;19929;-67
2021/11/23 14:50:33;;;;;;;;;;;;;;;;;;5069083;28;19925;-66
2021/11/23 14:53:02;;;;;;;;;;;;;;;;;;5068948;28;19986;-66
2021/11/23 14:55:35;;;;;;;;;;;;;;;;;;5066028;28;19973;-70
2021/11/23 14:58:05;;;;;;;;;;;;;;;;;;5070160;28;20522;-68
2021/11/23 15:00:33;;;;;;;;;;;;;;;;;;5066714;28;19924;-70
2021/11/23 15:03:06;;;;;;;;;;;;;;;;;;5066833;28;19924;-66
2021/11/23 15:05:36;;;;;;;;;;;;;;;;;;5069059;28;19928;-68
2021/11/23 15:08:06;;;;;;;;;;;;;;;;;;5076233;28;20272;-68
2021/11/23 15:10:35;;;;;;;;;;;;;;;;;;5069136;28;19982;-70
2021/11/23 15:13:05;;;;;;;;;;;;;;;;;;5067709;28;20440;-66
2021/11/23 15:15:37;;;;;;;;;;;;;;;;;;5068323;28;19932;-66
2021/11/23 15:18:07;;;;;;;;;;;;;;;;;;5070128;28;19932;-66
2021/11/23 15:20:37;;;;;;;;;;;;;;;;;;5066363;28;19939;-65
2021/11/23 15:23:06;;;;;;;;;;;;;;;;;;5072096;28;19932;-65
2021/11/23 15:25:34;;;;;;;;;;;;;;;;;;5073756;28;19928;-65
2021/11/23 15:28:03;;;;;;;;;;;;;;;;;;5069597;28;20580;-65
2021/11/23 15:30:30;;;;;;;;;;;;;;;;;;5067030;28;20382;-66
2021/11/23 15:32:57;;;;;;;;;;;;;;;;;;5054778;28;20395;-66
2021/11/23 15:35:38;;;;;;;;;;;;;;;;;;5069914;28;19914;-66
2021/11/23 15:38:35;;;;;;;;;;;;;;;;;;5053154;28;20038;-67
2021/11/23 15:41:05;;;;;;;;;;;;;;;;;;5069900;28;19920;-66
2021/11/23 15:43:34;;;;;;;;;;;;;;;;;;5066329;28;19924;-68
2021/11/23 15:46:03;;;;;;;;;;;;;;;;;;5061062;28;19935;-68
2021/11/23 15:48:34;;;;;;;;;;;;;;;;;;5074757;28;20338;-70
2021/11/23 15:51:07;;;;;;;;;;;;;;;;;;5071912;28;19928;-67
2021/11/23 15:53:38;;;;;;;;;;;;;;;;;;5071420;28;19929;-69
2021/11/23 15:56:05;;;;;;;;;;;;;;;;;;5059595;28;20242;-68
2021/11/23 15:58:33;;;;;;;;;;;;;;;;;;5077190;28;19924;-68
2021/11/23 16:01:03;;;;;;;;;;;;;;;;;;5067228;28;19997;-67
2021/11/23 16:03:31;;;;;;;;;;;;;;;;;;5071684;28;20538;-68
2021/11/23 16:06:02;;;;;;;;;;;;;;;;;;5067691;28;19929;-67
2021/11/23 16:08:33;;;;;;;;;;;;;;;;;;5064503;28;19932;-65
2021/11/23 16:11:03;;;;;;;;;;;;;;;;;;5066805;28;20006;-68
2021/11/23 16:13:31;;;;;;;;;;;;;;;;;;5078310;28;19934;-67
2021/11/23 16:16:01;;;;;;;;;;;;;;;;;;5067992;28;19933;-67
2021/11/23 16:18:31;;;;;;;;;;;;;;;;;;5070104;28;19943;-67
2021/11/23 16:21:01;;;;;;;;;;;;;;;;;;5066065;28;19924;-67
2021/11/23 16:23:28;;;;;;;;;;;;;;;;;;5077527;28;19924;-67
2021/11/23 16:25:57;;;;;;;;;;;;;;;;;;5067888;28;19936;-66
2021/11/23 16:28:26;;;;;;;;;;;;;;;;;;5069161;28;20537;-67
2021/11/23 16:30:53;;;;;;;;;;;;;;;;;;5069152;28;19925;-67
2021/11/23 16:33:22;;;;;;;;;;;;;;;;;;5063097;28;19925;-67
2021/11/23 16:35:50;;;;;;;;;;;;;;;;;;5069750;28;19924;-67
2021/11/23 16:38:17;;;;;;;;;;;;;;;;;;5075576;28;19939;-67
2021/11/23 16:40:48;;;;;;;;;;;;;;;;;;5068176;28;19932;-67
2021/11/23 16:43:33;;;;;;;;;;;;;;;;;;5072889;28;19924;-67
2021/11/23 16:46:03;;;;;;;;;;;;;;;;;;5078220;28;20134;-68
2021/11/23 16:48:32;;;;;;;;;;;;;;;;;;5065770;28;19932;-67
2021/11/23 16:51:00;;;;;;;;;;;;;;;;;;5065527;28;19927;-67
2021/11/23 16:53:30;;;;;;;;;;;;;;;;;;5073772;28;19924;-69
2021/11/23 16:56:00;;;;;;;;;;;;;;;;;;5066637;28;19931;-67
2021/11/23 16:58:27;;;;;;;;;;;;;;;;;;5068003;28;20610;-68
2021/11/23 17:00:56;;;;;;;;;;;;;;;;;;5066180;28;19924;-68
2021/11/23 17:03:28;;;;;;;;;;;;;;;;;;5069006;28;20010;-67
2021/11/23 17:05:55;;;;;;;;;;;;;;;;;;5068163;28;19935;-68